メインページ
METAR-TAF:

METAR-TAF

空港 :

バマコ・セヌー国際空港

バマコ, マリ共和国

緯度: 12-32N, 経度: 007-57W, 海抜: 380m

現時点の気象観測

当レポートは32分前の01:00(UTC)に作成
変向風 2kt
気温 24°C
湿度 89%
気圧 1016 hPa
視程10km以上
1,500メートル以下は雲なし、積乱雲なし

METAR: GABS 160100Z VRB02KT CAVOK 24/22 Q1016 NOSIG

時間: 01:32 (01:32 UTC)

予報

当レポートは2時間25分前の23:07(UTC)に作成
予報は16日の 00時(UTC)から 17日の 06時(UTC)まで有効
南/南東の風 6kt
視程10km以上
高度3000ftの雲はほとんどない
確率 40% :
16日の 03時(UTC)から 16日の 09時(UTC)まで一時的に
変向風 18kt、最大45ktの突風を伴う
視程: 3000m
高度2600ftの雲は散在している
高度3300ftの雲は散在している, 積乱雲.
風塵, 激しい雷雨, 雨
確率 40% :
16日の 18時(UTC)から 16日の 24時(UTC)まで一時的に
の風 25kt、最大40ktの突風を伴う
視程: 1200m
高度2000ftの千切れ雲あり
高度3000ftの雲は散在している, 積乱雲.
スコール, 風塵, 激しい雷雨, 雨

TAF: GABS 152307Z 1600/1706 16006KT 9999 FEW030 PROB40 TEMPO 1603/1609 VRB18G45KT 3000 BLDU TSRA SCT026 SCT033CB PROB40 TEMPO 1618/1624 08025G40KT 1200 SQ BLDU TSRA BKN020 SCT030CB

4,000以上の空港の気象観測と天気予報(METAR報とTAF報)

利用可能な観測所は地図上に黄色い丸と赤い丸で示す。

丸の上にカーソルを重ねると観測所名を参照できる。

次にクリックすると気象観測と天気予報を参照できる。

マップの切り替え:黒色「×」印の緑ボタンをクリックして拡大、「-」印の緑ボタンをクリックして縮小、緑色の三角印をクリックして隣りの地図に切り替え


METAR-TAF: